sensor_id;sensor_type;location;lat;lon;timestamp;P1;durP1;ratioP1;P2;durP2;ratioP2
48861;SDS011;34681;49.188;-0.374;2022-12-20T00:01:29;4.13;;;3.93;;
48861;SDS011;34681;49.188;-0.374;2022-12-20T00:03:57;4.37;;;4.07;;
48861;SDS011;34681;49.188;-0.374;2022-12-20T00:06:24;4.40;;;4.10;;
48861;SDS011;34681;49.188;-0.374;2022-12-20T00:08:57;4.70;;;4.30;;
48861;SDS011;34681;49.188;-0.374;2022-12-20T00:11:24;4.40;;;4.00;;
48861;SDS011;34681;49.188;-0.374;2022-12-20T00:13:51;5.47;;;4.90;;
48861;SDS011;34681;49.188;-0.374;2022-12-20T00:16:17;6.30;;;4.80;;
48861;SDS011;34681;49.188;-0.374;2022-12-20T00:18:44;4.93;;;4.50;;
48861;SDS011;34681;49.188;-0.374;2022-12-20T00:21:11;6.70;;;5.10;;
48861;SDS011;34681;49.188;-0.374;2022-12-20T00:23:38;8.40;;;5.00;;
48861;SDS011;34681;49.188;-0.374;2022-12-20T00:26:05;5.23;;;4.53;;
48861;SDS011;34681;49.188;-0.374;2022-12-20T00:28:32;5.80;;;5.13;;
48861;SDS011;34681;49.188;-0.374;2022-12-20T00:30:59;7.70;;;5.67;;
48861;SDS011;34681;49.188;-0.374;2022-12-20T00:33:25;5.63;;;5.13;;
48861;SDS011;34681;49.188;-0.374;2022-12-20T00:35:51;8.90;;;5.00;;
48861;SDS011;34681;49.188;-0.374;2022-12-20T00:38:19;5.73;;;5.33;;
48861;SDS011;34681;49.188;-0.374;2022-12-20T00:40:44;11.60;;;5.87;;
48861;SDS011;34681;49.188;-0.374;2022-12-20T00:43:10;8.17;;;5.60;;
48861;SDS011;34681;49.188;-0.374;2022-12-20T00:45:35;5.07;;;4.40;;
48861;SDS011;34681;49.188;-0.374;2022-12-20T00:48:00;7.03;;;5.83;;
48861;SDS011;34681;49.188;-0.374;2022-12-20T00:50:26;7.57;;;6.33;;
48861;SDS011;34681;49.188;-0.374;2022-12-20T00:52:51;8.93;;;5.20;;
48861;SDS011;34681;49.188;-0.374;2022-12-20T00:55:16;7.43;;;5.80;;
48861;SDS011;34681;49.188;-0.374;2022-12-20T00:57:42;6.20;;;5.60;;
48861;SDS011;34681;49.188;-0.374;2022-12-20T01:00:07;5.90;;;5.40;;
48861;SDS011;34681;49.188;-0.374;2022-12-20T01:02:33;8.33;;;6.20;;
48861;SDS011;34681;49.188;-0.374;2022-12-20T01:04:58;9.57;;;5.30;;
48861;SDS011;34681;49.188;-0.374;2022-12-20T01:07:24;7.30;;;5.13;;
48861;SDS011;34681;49.188;-0.374;2022-12-20T01:09:50;7.70;;;5.47;;
48861;SDS011;34681;49.188;-0.374;2022-12-20T01:12:15;6.07;;;5.40;;
48861;SDS011;34681;49.188;-0.374;2022-12-20T01:14:41;7.67;;;6.00;;
48861;SDS011;34681;49.188;-0.374;2022-12-20T01:17:06;5.33;;;4.70;;
48861;SDS011;34681;49.188;-0.374;2022-12-20T01:19:32;8.77;;;5.27;;
48861;SDS011;34681;49.188;-0.374;2022-12-20T01:21:57;5.27;;;4.77;;
48861;SDS011;34681;49.188;-0.374;2022-12-20T01:24:23;5.43;;;5.00;;
48861;SDS011;34681;49.188;-0.374;2022-12-20T01:26:48;7.73;;;5.30;;
48861;SDS011;34681;49.188;-0.374;2022-12-20T01:29:14;6.10;;;5.07;;
48861;SDS011;34681;49.188;-0.374;2022-12-20T01:31:39;7.00;;;5.30;;
48861;SDS011;34681;49.188;-0.374;2022-12-20T01:34:05;7.20;;;5.57;;
48861;SDS011;34681;49.188;-0.374;2022-12-20T01:36:31;5.97;;;4.67;;
48861;SDS011;34681;49.188;-0.374;2022-12-20T01:39:16;5.33;;;4.83;;
48861;SDS011;34681;49.188;-0.374;2022-12-20T01:41:42;8.50;;;5.20;;
48861;SDS011;34681;49.188;-0.374;2022-12-20T01:46:42;7.73;;;5.10;;
48861;SDS011;34681;49.188;-0.374;2022-12-20T01:52:03;9.30;;;6.23;;
48861;SDS011;34681;49.188;-0.374;2022-12-20T01:57:04;7.50;;;4.40;;
48861;SDS011;34681;49.188;-0.374;2022-12-20T01:59:33;8.37;;;4.73;;
48861;SDS011;34681;49.188;-0.374;2022-12-20T02:02:02;5.57;;;5.07;;
48861;SDS011;34681;49.188;-0.374;2022-12-20T02:04:31;8.10;;;5.13;;
48861;SDS011;34681;49.188;-0.374;2022-12-20T02:06:57;6.37;;;5.00;;
48861;SDS011;34681;49.188;-0.374;2022-12-20T02:09:23;10.07;;;5.13;;
48861;SDS011;34681;49.188;-0.374;2022-12-20T02:14:38;5.43;;;4.93;;
48861;SDS011;34681;49.188;-0.374;2022-12-20T02:26:18;6.57;;;5.63;;
48861;SDS011;34681;49.188;-0.374;2022-12-20T02:34:35;8.27;;;4.90;;
48861;SDS011;34681;49.188;-0.374;2022-12-20T02:37:02;6.17;;;5.33;;
48861;SDS011;34681;49.188;-0.374;2022-12-20T02:39:28;9.60;;;4.60;;
48861;SDS011;34681;49.188;-0.374;2022-12-20T02:42:00;6.17;;;4.80;;
48861;SDS011;34681;49.188;-0.374;2022-12-20T02:44:31;7.43;;;4.80;;
48861;SDS011;34681;49.188;-0.374;2022-12-20T02:47:26;6.30;;;5.10;;
48861;SDS011;34681;49.188;-0.374;2022-12-20T02:49:57;8.03;;;5.63;;
48861;SDS011;34681;49.188;-0.374;2022-12-20T02:52:24;8.20;;;5.50;;
48861;SDS011;34681;49.188;-0.374;2022-12-20T02:54:55;14.10;;;6.30;;
48861;SDS011;34681;49.188;-0.374;2022-12-20T02:57:22;5.80;;;5.17;;
48861;SDS011;34681;49.188;-0.374;2022-12-20T03:02:34;5.93;;;4.60;;
48861;SDS011;34681;49.188;-0.374;2022-12-20T03:05:27;9.13;;;5.60;;
48861;SDS011;34681;49.188;-0.374;2022-12-20T03:07:52;6.33;;;5.20;;
48861;SDS011;34681;49.188;-0.374;2022-12-20T03:10:18;5.07;;;4.40;;
48861;SDS011;34681;49.188;-0.374;2022-12-20T03:12:44;5.47;;;4.23;;
48861;SDS011;34681;49.188;-0.374;2022-12-20T03:15:10;5.10;;;4.53;;
48861;SDS011;34681;49.188;-0.374;2022-12-20T03:17:36;9.30;;;4.93;;
48861;SDS011;34681;49.188;-0.374;2022-12-20T03:20:02;5.33;;;4.67;;
48861;SDS011;34681;49.188;-0.374;2022-12-20T03:22:30;6.20;;;5.03;;
48861;SDS011;34681;49.188;-0.374;2022-12-20T03:24:56;8.20;;;4.73;;
48861;SDS011;34681;49.188;-0.374;2022-12-20T03:27:21;6.20;;;4.20;;
48861;SDS011;34681;49.188;-0.374;2022-12-20T03:29:46;7.23;;;4.43;;
48861;SDS011;34681;49.188;-0.374;2022-12-20T03:32:12;4.77;;;4.43;;
48861;SDS011;34681;49.188;-0.374;2022-12-20T03:34:37;5.27;;;4.30;;
48861;SDS011;34681;49.188;-0.374;2022-12-20T03:37:02;5.03;;;4.53;;
48861;SDS011;34681;49.188;-0.374;2022-12-20T03:39:28;9.13;;;4.93;;
48861;SDS011;34681;49.188;-0.374;2022-12-20T03:41:53;5.60;;;5.00;;
48861;SDS011;34681;49.188;-0.374;2022-12-20T03:44:19;6.93;;;5.13;;
48861;SDS011;34681;49.188;-0.374;2022-12-20T03:46:44;5.07;;;4.67;;
48861;SDS011;34681;49.188;-0.374;2022-12-20T03:49:10;5.57;;;5.07;;
48861;SDS011;34681;49.188;-0.374;2022-12-20T03:51:35;6.93;;;4.83;;
48861;SDS011;34681;49.188;-0.374;2022-12-20T03:54:00;7.63;;;5.10;;
48861;SDS011;34681;49.188;-0.374;2022-12-20T03:56:26;5.47;;;4.10;;
48861;SDS011;34681;49.188;-0.374;2022-12-20T03:58:51;6.57;;;5.10;;
48861;SDS011;34681;49.188;-0.374;2022-12-20T04:01:20;5.03;;;4.53;;
48861;SDS011;34681;49.188;-0.374;2022-12-20T04:03:50;8.77;;;5.13;;
48861;SDS011;34681;49.188;-0.374;2022-12-20T04:06:16;5.70;;;4.67;;
48861;SDS011;34681;49.188;-0.374;2022-12-20T04:08:42;7.10;;;4.57;;
48861;SDS011;34681;49.188;-0.374;2022-12-20T04:11:08;6.97;;;5.20;;
48861;SDS011;34681;49.188;-0.374;2022-12-20T04:13:40;5.27;;;4.30;;
48861;SDS011;34681;49.188;-0.374;2022-12-20T04:16:05;7.77;;;4.67;;
48861;SDS011;34681;49.188;-0.374;2022-12-20T04:18:31;6.60;;;5.10;;
48861;SDS011;34681;49.188;-0.374;2022-12-20T04:20:58;7.57;;;4.73;;
48861;SDS011;34681;49.188;-0.374;2022-12-20T04:23:24;7.80;;;4.90;;
48861;SDS011;34681;49.188;-0.374;2022-12-20T04:25:49;4.37;;;4.03;;
48861;SDS011;34681;49.188;-0.374;2022-12-20T04:28:15;5.83;;;4.37;;
48861;SDS011;34681;49.188;-0.374;2022-12-20T04:30:40;4.50;;;4.13;;
48861;SDS011;34681;49.188;-0.374;2022-12-20T04:33:05;12.57;;;5.20;;
48861;SDS011;34681;49.188;-0.374;2022-12-20T04:35:31;4.70;;;4.40;;
48861;SDS011;34681;49.188;-0.374;2022-12-20T04:37:56;9.60;;;4.90;;
48861;SDS011;34681;49.188;-0.374;2022-12-20T04:40:22;5.23;;;4.73;;
48861;SDS011;34681;49.188;-0.374;2022-12-20T04:42:47;5.30;;;4.40;;
48861;SDS011;34681;49.188;-0.374;2022-12-20T04:45:13;5.43;;;4.93;;
48861;SDS011;34681;49.188;-0.374;2022-12-20T04:47:38;7.23;;;6.00;;
48861;SDS011;34681;49.188;-0.374;2022-12-20T04:50:04;4.50;;;3.97;;
48861;SDS011;34681;49.188;-0.374;2022-12-20T04:52:31;6.27;;;4.60;;
48861;SDS011;34681;49.188;-0.374;2022-12-20T04:55:14;5.67;;;4.50;;
48861;SDS011;34681;49.188;-0.374;2022-12-20T04:57:40;6.93;;;4.50;;
48861;SDS011;34681;49.188;-0.374;2022-12-20T05:00:05;5.97;;;5.17;;
48861;SDS011;34681;49.188;-0.374;2022-12-20T05:02:31;4.73;;;3.83;;
48861;SDS011;34681;49.188;-0.374;2022-12-20T05:04:57;8.57;;;4.23;;
48861;SDS011;34681;49.188;-0.374;2022-12-20T05:07:22;6.33;;;4.67;;
48861;SDS011;34681;49.188;-0.374;2022-12-20T05:09:47;9.47;;;4.37;;
48861;SDS011;34681;49.188;-0.374;2022-12-20T05:12:13;8.10;;;4.50;;
48861;SDS011;34681;49.188;-0.374;2022-12-20T05:14:38;9.50;;;4.93;;
48861;SDS011;34681;49.188;-0.374;2022-12-20T05:17:03;6.70;;;4.43;;
48861;SDS011;34681;49.188;-0.374;2022-12-20T05:19:29;6.20;;;4.57;;
48861;SDS011;34681;49.188;-0.374;2022-12-20T05:21:54;4.80;;;4.40;;
48861;SDS011;34681;49.188;-0.374;2022-12-20T05:24:38;7.30;;;4.30;;
48861;SDS011;34681;49.188;-0.374;2022-12-20T05:27:22;4.67;;;4.20;;
48861;SDS011;34681;49.188;-0.374;2022-12-20T05:29:48;8.47;;;5.30;;
48861;SDS011;34681;49.188;-0.374;2022-12-20T05:32:13;6.83;;;4.10;;
48861;SDS011;34681;49.188;-0.374;2022-12-20T05:34:38;8.53;;;5.00;;
48861;SDS011;34681;49.188;-0.374;2022-12-20T05:37:04;4.83;;;4.33;;
48861;SDS011;34681;49.188;-0.374;2022-12-20T05:39:29;8.07;;;5.13;;
48861;SDS011;34681;49.188;-0.374;2022-12-20T05:41:55;5.83;;;5.03;;
48861;SDS011;34681;49.188;-0.374;2022-12-20T05:44:20;5.37;;;4.37;;
48861;SDS011;34681;49.188;-0.374;2022-12-20T05:46:46;6.07;;;4.60;;
48861;SDS011;34681;49.188;-0.374;2022-12-20T05:49:11;13.20;;;4.93;;
48861;SDS011;34681;49.188;-0.374;2022-12-20T05:51:37;9.00;;;5.60;;
48861;SDS011;34681;49.188;-0.374;2022-12-20T05:54:02;8.57;;;4.47;;
48861;SDS011;34681;49.188;-0.374;2022-12-20T05:56:28;8.60;;;4.43;;
48861;SDS011;34681;49.188;-0.374;2022-12-20T05:58:53;6.17;;;4.83;;
48861;SDS011;34681;49.188;-0.374;2022-12-20T06:01:19;5.63;;;4.80;;
48861;SDS011;34681;49.188;-0.374;2022-12-20T06:03:44;6.33;;;5.00;;
48861;SDS011;34681;49.188;-0.374;2022-12-20T06:06:10;4.40;;;4.10;;
48861;SDS011;34681;49.188;-0.374;2022-12-20T06:08:35;4.73;;;4.27;;
48861;SDS011;34681;49.188;-0.374;2022-12-20T06:11:01;6.90;;;3.83;;
48861;SDS011;34681;49.188;-0.374;2022-12-20T06:13:28;5.27;;;4.00;;
48861;SDS011;34681;49.188;-0.374;2022-12-20T06:15:54;6.37;;;4.50;;
48861;SDS011;34681;49.188;-0.374;2022-12-20T06:18:19;4.80;;;4.07;;
48861;SDS011;34681;49.188;-0.374;2022-12-20T06:20:49;4.70;;;3.60;;
48861;SDS011;34681;49.188;-0.374;2022-12-20T06:23:15;4.63;;;4.20;;
48861;SDS011;34681;49.188;-0.374;2022-12-20T06:25:40;5.47;;;3.80;;
48861;SDS011;34681;49.188;-0.374;2022-12-20T06:28:06;5.03;;;3.50;;
48861;SDS011;34681;49.188;-0.374;2022-12-20T06:30:32;5.10;;;3.60;;
48861;SDS011;34681;49.188;-0.374;2022-12-20T06:32:58;5.80;;;3.33;;
48861;SDS011;34681;49.188;-0.374;2022-12-20T06:35:23;3.70;;;3.40;;
48861;SDS011;34681;49.188;-0.374;2022-12-20T06:37:49;3.77;;;3.47;;
48861;SDS011;34681;49.188;-0.374;2022-12-20T06:40:14;3.40;;;3.10;;
48861;SDS011;34681;49.188;-0.374;2022-12-20T06:42:40;4.60;;;3.60;;
48861;SDS011;34681;49.188;-0.374;2022-12-20T06:45:06;6.30;;;4.13;;
48861;SDS011;34681;49.188;-0.374;2022-12-20T06:47:32;7.80;;;3.53;;
48861;SDS011;34681;49.188;-0.374;2022-12-20T06:49:57;5.53;;;3.60;;
48861;SDS011;34681;49.188;-0.374;2022-12-20T06:52:22;3.70;;;3.40;;
48861;SDS011;34681;49.188;-0.374;2022-12-20T06:54:48;4.10;;;3.80;;
48861;SDS011;34681;49.188;-0.374;2022-12-20T06:57:13;3.90;;;3.70;;
48861;SDS011;34681;49.188;-0.374;2022-12-20T06:59:39;7.10;;;3.80;;
48861;SDS011;34681;49.188;-0.374;2022-12-20T07:02:05;4.77;;;4.17;;
48861;SDS011;34681;49.188;-0.374;2022-12-20T07:04:30;5.10;;;4.57;;
48861;SDS011;34681;49.188;-0.374;2022-12-20T07:06:56;4.80;;;3.70;;
48861;SDS011;34681;49.188;-0.374;2022-12-20T07:09:21;9.73;;;4.50;;
48861;SDS011;34681;49.188;-0.374;2022-12-20T07:11:47;3.87;;;3.47;;
48861;SDS011;34681;49.188;-0.374;2022-12-20T07:14:13;3.73;;;3.40;;
48861;SDS011;34681;49.188;-0.374;2022-12-20T07:16:38;6.07;;;3.30;;
48861;SDS011;34681;49.188;-0.374;2022-12-20T07:19:09;3.77;;;3.47;;
48861;SDS011;34681;49.188;-0.374;2022-12-20T07:21:35;4.87;;;4.40;;
48861;SDS011;34681;49.188;-0.374;2022-12-20T07:24:01;4.47;;;4.17;;
48861;SDS011;34681;49.188;-0.374;2022-12-20T07:26:26;4.00;;;3.70;;
48861;SDS011;34681;49.188;-0.374;2022-12-20T07:28:52;5.80;;;5.20;;
48861;SDS011;34681;49.188;-0.374;2022-12-20T07:31:18;6.10;;;4.50;;
48861;SDS011;34681;49.188;-0.374;2022-12-20T07:33:43;4.40;;;4.00;;
48861;SDS011;34681;49.188;-0.374;2022-12-20T07:36:09;4.73;;;3.57;;
48861;SDS011;34681;49.188;-0.374;2022-12-20T07:38:36;4.77;;;4.37;;
48861;SDS011;34681;49.188;-0.374;2022-12-20T07:41:09;6.33;;;3.83;;
48861;SDS011;34681;49.188;-0.374;2022-12-20T07:43:35;3.57;;;3.33;;
48861;SDS011;34681;49.188;-0.374;2022-12-20T07:46:02;3.93;;;3.63;;
48861;SDS011;34681;49.188;-0.374;2022-12-20T07:48:28;3.33;;;3.07;;
48861;SDS011;34681;49.188;-0.374;2022-12-20T07:50:55;3.90;;;3.60;;
48861;SDS011;34681;49.188;-0.374;2022-12-20T07:53:27;4.60;;;4.17;;
48861;SDS011;34681;49.188;-0.374;2022-12-20T07:55:55;3.70;;;3.40;;
48861;SDS011;34681;49.188;-0.374;2022-12-20T07:58:22;4.00;;;3.70;;
48861;SDS011;34681;49.188;-0.374;2022-12-20T08:00:48;3.87;;;3.57;;
48861;SDS011;34681;49.188;-0.374;2022-12-20T08:03:18;6.53;;;3.53;;
48861;SDS011;34681;49.188;-0.374;2022-12-20T08:05:48;3.40;;;3.10;;
48861;SDS011;34681;49.188;-0.374;2022-12-20T08:08:17;3.00;;;2.70;;
48861;SDS011;34681;49.188;-0.374;2022-12-20T08:10:43;3.13;;;2.83;;
48861;SDS011;34681;49.188;-0.374;2022-12-20T08:13:10;4.30;;;3.00;;
48861;SDS011;34681;49.188;-0.374;2022-12-20T08:15:36;3.70;;;3.00;;
48861;SDS011;34681;49.188;-0.374;2022-12-20T08:18:01;3.77;;;3.37;;
48861;SDS011;34681;49.188;-0.374;2022-12-20T08:20:27;5.00;;;2.90;;
48861;SDS011;34681;49.188;-0.374;2022-12-20T08:22:52;3.60;;;3.30;;
48861;SDS011;34681;49.188;-0.374;2022-12-20T08:25:18;2.97;;;2.70;;
48861;SDS011;34681;49.188;-0.374;2022-12-20T08:27:43;3.70;;;2.30;;
48861;SDS011;34681;49.188;-0.374;2022-12-20T08:30:09;3.50;;;3.30;;
48861;SDS011;34681;49.188;-0.374;2022-12-20T08:32:35;3.17;;;2.97;;
48861;SDS011;34681;49.188;-0.374;2022-12-20T08:35:01;3.23;;;2.93;;
48861;SDS011;34681;49.188;-0.374;2022-12-20T08:37:27;2.30;;;2.20;;
48861;SDS011;34681;49.188;-0.374;2022-12-20T08:39:52;3.37;;;3.00;;
48861;SDS011;34681;49.188;-0.374;2022-12-20T08:42:18;6.43;;;2.60;;
48861;SDS011;34681;49.188;-0.374;2022-12-20T08:44:43;4.60;;;3.17;;
48861;SDS011;34681;49.188;-0.374;2022-12-20T08:47:08;5.03;;;2.53;;
48861;SDS011;34681;49.188;-0.374;2022-12-20T08:49:34;3.20;;;2.47;;
48861;SDS011;34681;49.188;-0.374;2022-12-20T08:52:01;3.10;;;2.60;;
48861;SDS011;34681;49.188;-0.374;2022-12-20T08:54:26;3.17;;;2.97;;
48861;SDS011;34681;49.188;-0.374;2022-12-20T08:56:51;3.37;;;2.73;;
48861;SDS011;34681;49.188;-0.374;2022-12-20T08:59:17;3.03;;;2.80;;
48861;SDS011;34681;49.188;-0.374;2022-12-20T09:01:42;2.77;;;2.67;;
48861;SDS011;34681;49.188;-0.374;2022-12-20T09:04:09;3.27;;;3.03;;
48861;SDS011;34681;49.188;-0.374;2022-12-20T09:06:35;4.47;;;3.10;;
48861;SDS011;34681;49.188;-0.374;2022-12-20T09:09:00;3.00;;;2.70;;
48861;SDS011;34681;49.188;-0.374;2022-12-20T09:11:26;3.80;;;2.80;;
48861;SDS011;34681;49.188;-0.374;2022-12-20T09:13:53;4.33;;;3.80;;
48861;SDS011;34681;49.188;-0.374;2022-12-20T09:16:25;2.60;;;2.50;;
48861;SDS011;34681;49.188;-0.374;2022-12-20T09:18:53;3.87;;;3.00;;
48861;SDS011;34681;49.188;-0.374;2022-12-20T09:21:20;3.20;;;3.00;;
48861;SDS011;34681;49.188;-0.374;2022-12-20T09:23:46;3.23;;;2.93;;
48861;SDS011;34681;49.188;-0.374;2022-12-20T09:26:14;3.60;;;3.10;;
48861;SDS011;34681;49.188;-0.374;2022-12-20T09:28:41;6.30;;;3.47;;
48861;SDS011;34681;49.188;-0.374;2022-12-20T09:31:07;3.53;;;3.33;;
48861;SDS011;34681;49.188;-0.374;2022-12-20T09:33:36;3.53;;;3.23;;
48861;SDS011;34681;49.188;-0.374;2022-12-20T09:36:01;2.77;;;2.67;;
48861;SDS011;34681;49.188;-0.374;2022-12-20T09:38:28;4.17;;;3.00;;
48861;SDS011;34681;49.188;-0.374;2022-12-20T09:40:56;3.37;;;3.17;;
48861;SDS011;34681;49.188;-0.374;2022-12-20T09:43:25;5.33;;;4.13;;
48861;SDS011;34681;49.188;-0.374;2022-12-20T09:45:59;3.33;;;3.07;;
48861;SDS011;34681;49.188;-0.374;2022-12-20T09:48:32;3.67;;;3.37;;
48861;SDS011;34681;49.188;-0.374;2022-12-20T09:53:33;3.30;;;3.10;;
48861;SDS011;34681;49.188;-0.374;2022-12-20T09:56:09;3.23;;;2.80;;
48861;SDS011;34681;49.188;-0.374;2022-12-20T09:58:43;3.50;;;3.20;;
48861;SDS011;34681;49.188;-0.374;2022-12-20T10:01:22;3.07;;;2.80;;
48861;SDS011;34681;49.188;-0.374;2022-12-20T10:03:49;2.60;;;2.47;;
48861;SDS011;34681;49.188;-0.374;2022-12-20T10:12:02;2.70;;;2.50;;
48861;SDS011;34681;49.188;-0.374;2022-12-20T10:20:29;2.27;;;2.10;;
48861;SDS011;34681;49.188;-0.374;2022-12-20T10:23:10;2.00;;;1.90;;
48861;SDS011;34681;49.188;-0.374;2022-12-20T10:25:37;2.33;;;1.73;;
48861;SDS011;34681;49.188;-0.374;2022-12-20T10:28:14;1.60;;;1.50;;
48861;SDS011;34681;49.188;-0.374;2022-12-20T10:30:41;2.03;;;1.93;;
48861;SDS011;34681;49.188;-0.374;2022-12-20T10:33:13;4.40;;;2.60;;
48861;SDS011;34681;49.188;-0.374;2022-12-20T10:35:44;2.70;;;2.50;;
48861;SDS011;34681;49.188;-0.374;2022-12-20T10:38:10;3.13;;;2.83;;
48861;SDS011;34681;49.188;-0.374;2022-12-20T10:40:39;2.80;;;2.60;;
48861;SDS011;34681;49.188;-0.374;2022-12-20T10:43:16;2.47;;;2.37;;
48861;SDS011;34681;49.188;-0.374;2022-12-20T10:45:45;3.40;;;2.43;;
48861;SDS011;34681;49.188;-0.374;2022-12-20T10:48:32;4.90;;;2.83;;
48861;SDS011;34681;49.188;-0.374;2022-12-20T10:51:15;3.03;;;2.73;;
48861;SDS011;34681;49.188;-0.374;2022-12-20T10:53:51;3.70;;;3.13;;
48861;SDS011;34681;49.188;-0.374;2022-12-20T10:56:26;2.70;;;2.50;;
48861;SDS011;34681;49.188;-0.374;2022-12-20T10:58:58;2.80;;;2.57;;
48861;SDS011;34681;49.188;-0.374;2022-12-20T11:01:47;2.90;;;2.60;;
48861;SDS011;34681;49.188;-0.374;2022-12-20T11:04:46;2.27;;;2.10;;
48861;SDS011;34681;49.188;-0.374;2022-12-20T11:07:25;2.67;;;2.47;;
48861;SDS011;34681;49.188;-0.374;2022-12-20T11:10:00;2.60;;;2.50;;
48861;SDS011;34681;49.188;-0.374;2022-12-20T11:12:28;3.50;;;3.27;;
48861;SDS011;34681;49.188;-0.374;2022-12-20T11:15:07;6.20;;;5.70;;
48861;SDS011;34681;49.188;-0.374;2022-12-20T11:17:40;7.43;;;6.77;;
48861;SDS011;34681;49.188;-0.374;2022-12-20T11:25:31;4.63;;;4.30;;
48861;SDS011;34681;49.188;-0.374;2022-12-20T11:30:56;3.80;;;3.40;;
48861;SDS011;34681;49.188;-0.374;2022-12-20T11:36:37;1.87;;;1.20;;
48861;SDS011;34681;49.188;-0.374;2022-12-20T11:42:02;2.67;;;1.20;;
48861;SDS011;34681;49.188;-0.374;2022-12-20T11:53:25;3.47;;;1.50;;
48861;SDS011;34681;49.188;-0.374;2022-12-20T11:56:05;6.87;;;1.80;;
48861;SDS011;34681;49.188;-0.374;2022-12-20T12:01:13;4.00;;;1.77;;
48861;SDS011;34681;49.188;-0.374;2022-12-20T12:03:44;4.23;;;2.03;;
48861;SDS011;34681;49.188;-0.374;2022-12-20T12:06:26;2.10;;;1.70;;
48861;SDS011;34681;49.188;-0.374;2022-12-20T12:09:08;1.80;;;1.60;;
48861;SDS011;34681;49.188;-0.374;2022-12-20T12:12:23;4.13;;;2.17;;
48861;SDS011;34681;49.188;-0.374;2022-12-20T12:20:22;3.53;;;2.40;;
48861;SDS011;34681;49.188;-0.374;2022-12-20T12:25:59;3.73;;;2.40;;
48861;SDS011;34681;49.188;-0.374;2022-12-20T12:28:29;4.27;;;2.70;;
48861;SDS011;34681;49.188;-0.374;2022-12-20T12:30:59;3.90;;;2.63;;
48861;SDS011;34681;49.188;-0.374;2022-12-20T12:33:35;2.70;;;1.97;;
48861;SDS011;34681;49.188;-0.374;2022-12-20T12:41:22;3.10;;;2.30;;
48861;SDS011;34681;49.188;-0.374;2022-12-20T12:45:12;4.60;;;2.77;;
48861;SDS011;34681;49.188;-0.374;2022-12-20T12:47:20;3.70;;;1.63;;
48861;SDS011;34681;49.188;-0.374;2022-12-20T12:49:53;5.70;;;2.10;;
48861;SDS011;34681;49.188;-0.374;2022-12-20T12:52:28;3.70;;;2.37;;
48861;SDS011;34681;49.188;-0.374;2022-12-20T12:55:33;2.80;;;1.67;;
48861;SDS011;34681;49.188;-0.374;2022-12-20T12:58:14;3.50;;;1.90;;
48861;SDS011;34681;49.188;-0.374;2022-12-20T13:00:56;4.97;;;2.33;;
48861;SDS011;34681;49.188;-0.374;2022-12-20T13:16:41;4.60;;;1.73;;
48861;SDS011;34681;49.188;-0.374;2022-12-20T13:19:10;4.80;;;2.27;;
48861;SDS011;34681;49.188;-0.374;2022-12-20T13:21:41;4.40;;;2.17;;
48861;SDS011;34681;49.188;-0.374;2022-12-20T13:27:00;3.47;;;1.87;;
48861;SDS011;34681;49.188;-0.374;2022-12-20T13:29:32;2.70;;;1.70;;
48861;SDS011;34681;49.188;-0.374;2022-12-20T13:31:59;3.63;;;2.00;;
48861;SDS011;34681;49.188;-0.374;2022-12-20T13:34:52;7.03;;;2.47;;
48861;SDS011;34681;49.188;-0.374;2022-12-20T13:37:28;2.60;;;2.30;;
48861;SDS011;34681;49.188;-0.374;2022-12-20T13:40:35;2.80;;;2.00;;
48861;SDS011;34681;49.188;-0.374;2022-12-20T13:43:07;3.70;;;2.50;;
48861;SDS011;34681;49.188;-0.374;2022-12-20T13:45:39;4.63;;;2.33;;
48861;SDS011;34681;49.188;-0.374;2022-12-20T13:48:11;2.57;;;2.13;;
48861;SDS011;34681;49.188;-0.374;2022-12-20T13:50:46;3.30;;;2.17;;
48861;SDS011;34681;49.188;-0.374;2022-12-20T13:53:17;2.30;;;1.87;;
48861;SDS011;34681;49.188;-0.374;2022-12-20T13:55:44;3.13;;;2.60;;
48861;SDS011;34681;49.188;-0.374;2022-12-20T13:58:17;3.13;;;1.90;;
48861;SDS011;34681;49.188;-0.374;2022-12-20T14:00:50;4.07;;;2.10;;
48861;SDS011;34681;49.188;-0.374;2022-12-20T14:03:27;3.30;;;2.27;;
48861;SDS011;34681;49.188;-0.374;2022-12-20T14:05:58;6.50;;;2.37;;
48861;SDS011;34681;49.188;-0.374;2022-12-20T14:08:28;3.30;;;2.57;;
48861;SDS011;34681;49.188;-0.374;2022-12-20T14:11:10;3.50;;;2.83;;
48861;SDS011;34681;49.188;-0.374;2022-12-20T14:13:39;3.30;;;2.93;;
48861;SDS011;34681;49.188;-0.374;2022-12-20T14:16:17;2.97;;;2.50;;
48861;SDS011;34681;49.188;-0.374;2022-12-20T14:18:47;6.40;;;3.07;;
48861;SDS011;34681;49.188;-0.374;2022-12-20T14:21:13;4.13;;;2.87;;
48861;SDS011;34681;49.188;-0.374;2022-12-20T14:23:40;3.33;;;2.70;;
48861;SDS011;34681;49.188;-0.374;2022-12-20T14:26:10;4.40;;;3.00;;
48861;SDS011;34681;49.188;-0.374;2022-12-20T14:28:41;4.53;;;2.40;;
48861;SDS011;34681;49.188;-0.374;2022-12-20T14:31:30;8.37;;;3.60;;
48861;SDS011;34681;49.188;-0.374;2022-12-20T14:36:38;5.20;;;3.03;;
48861;SDS011;34681;49.188;-0.374;2022-12-20T14:41:57;9.83;;;3.80;;
48861;SDS011;34681;49.188;-0.374;2022-12-20T14:44:23;3.20;;;2.80;;
48861;SDS011;34681;49.188;-0.374;2022-12-20T14:46:51;5.33;;;2.80;;
48861;SDS011;34681;49.188;-0.374;2022-12-20T14:49:34;6.87;;;3.83;;
48861;SDS011;34681;49.188;-0.374;2022-12-20T14:57:24;4.50;;;3.40;;
48861;SDS011;34681;49.188;-0.374;2022-12-20T15:00:35;6.57;;;3.90;;
48861;SDS011;34681;49.188;-0.374;2022-12-20T15:08:36;6.00;;;3.30;;
48861;SDS011;34681;49.188;-0.374;2022-12-20T15:13:38;5.40;;;3.53;;
48861;SDS011;34681;49.188;-0.374;2022-12-20T15:16:17;4.83;;;3.80;;
48861;SDS011;34681;49.188;-0.374;2022-12-20T15:18:48;5.80;;;3.40;;
48861;SDS011;34681;49.188;-0.374;2022-12-20T15:21:16;3.53;;;3.23;;
48861;SDS011;34681;49.188;-0.374;2022-12-20T15:23:49;4.90;;;4.50;;
48861;SDS011;34681;49.188;-0.374;2022-12-20T15:26:17;7.20;;;5.07;;
48861;SDS011;34681;49.188;-0.374;2022-12-20T15:28:45;8.47;;;4.87;;
48861;SDS011;34681;49.188;-0.374;2022-12-20T15:31:11;9.30;;;6.20;;
48861;SDS011;34681;49.188;-0.374;2022-12-20T15:33:39;5.10;;;3.90;;
48861;SDS011;34681;49.188;-0.374;2022-12-20T15:36:06;6.50;;;4.77;;
48861;SDS011;34681;49.188;-0.374;2022-12-20T15:38:37;5.20;;;4.70;;
48861;SDS011;34681;49.188;-0.374;2022-12-20T15:41:03;5.47;;;3.10;;
48861;SDS011;34681;49.188;-0.374;2022-12-20T15:43:32;8.83;;;3.37;;
48861;SDS011;34681;49.188;-0.374;2022-12-20T15:46:03;6.83;;;3.00;;
48861;SDS011;34681;49.188;-0.374;2022-12-20T15:48:29;8.00;;;3.93;;
48861;SDS011;34681;49.188;-0.374;2022-12-20T15:50:55;9.77;;;4.03;;
48861;SDS011;34681;49.188;-0.374;2022-12-20T15:53:23;5.60;;;2.50;;
48861;SDS011;34681;49.188;-0.374;2022-12-20T15:55:52;2.40;;;2.17;;
48861;SDS011;34681;49.188;-0.374;2022-12-20T15:58:19;4.00;;;2.83;;
48861;SDS011;34681;49.188;-0.374;2022-12-20T16:00:45;4.47;;;2.40;;
48861;SDS011;34681;49.188;-0.374;2022-12-20T16:03:14;4.23;;;2.60;;
48861;SDS011;34681;49.188;-0.374;2022-12-20T16:05:48;4.73;;;2.50;;
48861;SDS011;34681;49.188;-0.374;2022-12-20T16:08:15;3.30;;;2.13;;
48861;SDS011;34681;49.188;-0.374;2022-12-20T16:10:42;4.53;;;2.20;;
48861;SDS011;34681;49.188;-0.374;2022-12-20T16:13:30;5.20;;;2.23;;
48861;SDS011;34681;49.188;-0.374;2022-12-20T16:15:55;6.10;;;2.57;;
48861;SDS011;34681;49.188;-0.374;2022-12-20T16:18:20;6.93;;;2.60;;
48861;SDS011;34681;49.188;-0.374;2022-12-20T16:20:45;3.50;;;2.87;;
48861;SDS011;34681;49.188;-0.374;2022-12-20T16:23:15;4.53;;;2.67;;
48861;SDS011;34681;49.188;-0.374;2022-12-20T16:25:48;4.57;;;2.50;;
48861;SDS011;34681;49.188;-0.374;2022-12-20T16:28:15;3.10;;;2.37;;
48861;SDS011;34681;49.188;-0.374;2022-12-20T16:30:41;5.40;;;2.60;;
48861;SDS011;34681;49.188;-0.374;2022-12-20T16:33:11;3.77;;;2.80;;
48861;SDS011;34681;49.188;-0.374;2022-12-20T16:35:43;4.70;;;2.93;;
48861;SDS011;34681;49.188;-0.374;2022-12-20T16:38:08;8.87;;;3.00;;
48861;SDS011;34681;49.188;-0.374;2022-12-20T16:40:33;11.73;;;4.00;;
48861;SDS011;34681;49.188;-0.374;2022-12-20T16:42:59;4.03;;;2.80;;